Latest Weather Observations for Mount Moornapa

IDV60801

Issued at 6:05 pm EST Tuesday 29 July 2014 (issued every 30 minutes, with the page automatically refreshed every 10 minutes)

About weather observations | Map of weather stations | Latest weather observations for VIC | Other Formats
Station Details ID: 085296 Name: MOUNT MOORNAPA Lat: -37.75 Lon: 147.14 Height: 480.0 m
Data from the previous 72 hours. | See also: Recent months at Mount Moornapa
Date/Time
EST
Temp
°C
App
Temp
°C
Dew
Point
Rel
Hum
%
Delta-T
°C
Wind Press
QNH
hPa
Press
MSL
hPa
Rain
since 9 am
mm
Dir
 
Spd
km/h
Gust
km/h
Spd
kts
Gust
kts
29/06:00pm 14.1 8.2 4.1 51 4.7 NW 24 63 13 34 - - 0.0
29/05:47pm 14.4 7.8 4.4 51 4.7 NW 28 63 15 34 - - 0.0
29/05:30pm 14.1 8.7 4.4 52 4.6 NW 22 59 12 32 - - 0.0
29/05:00pm 14.2 9.3 5.0 54 4.4 NW 20 50 11 27 - - 0.0
29/04:30pm 15.4 10.8 5.6 52 4.8 NW 19 43 10 23 - - 0.0
29/04:00pm 15.3 10.6 5.2 51 4.9 NW 19 41 10 22 - - 0.0
29/03:30pm 15.2 11.3 5.4 52 4.8 NW 15 32 8 17 - - 0.0
29/03:00pm 14.7 8.7 5.2 53 4.6 NW 26 54 14 29 - - 0.0
29/02:30pm 14.8 7.7 5.3 53 4.6 NW 32 78 17 42 - - 0.0
29/02:00pm 16.5 9.6 6.3 51 5.1 NW 32 65 17 35 - - 0.0
29/01:42pm 15.1 8.7 5.0 51 4.9 NW 28 74 15 40 - - 0.0
29/01:30pm 15.3 9.7 5.2 51 4.9 NW 24 65 13 35 - - 0.0
29/01:23pm 14.5 8.0 4.8 52 4.6 NW 28 65 15 35 - - 0.0
29/01:00pm 15.3 10.4 5.0 50 5.0 NW 20 46 11 25 - - 0.0
29/12:30pm 14.8 9.8 4.5 50 4.9 NW 20 41 11 22 - - 0.0
29/12:00pm 15.7 10.2 4.1 46 5.5 NW 22 48 12 26 - - 0.0
29/11:30am 15.7 11.1 3.5 44 5.7 NW 17 32 9 17 - - 0.0
29/11:00am 14.4 9.2 3.8 49 5.0 NW 20 43 11 23 - - 0.0
29/10:30am 14.8 9.8 3.6 47 5.2 NW 19 35 10 19 - - 0.0
29/10:00am 14.2 9.3 2.1 44 5.5 NNW 17 44 9 24 - - 0.0
29/09:30am 13.6 8.1 1.9 45 5.2 NW 20 48 11 26 - - 0.0
29/09:00am 12.3 6.7 1.3 47 4.8 NW 20 39 11 21 - - 0.0
29/08:30am 11.6 7.3 1.0 48 4.6 NNW 13 24 7 13 - - 0.0
29/08:00am 11.1 7.0 -0.4 45 4.8 NNW 11 22 6 12 - - 0.0
29/07:30am 11.4 7.7 -2.8 37 5.6 NNW 7 15 4 8 - - 0.0
29/07:00am 11.9 7.3 -3.8 33 6.1 NNW 11 30 6 16 - - 0.0
29/06:30am 12.3 9.0 -4.3 31 6.4 NW 4 9 2 5 - - 0.0
29/06:00am 11.9 7.0 -3.8 33 6.1 NNW 13 24 7 13 - - 0.0
29/05:30am 12.0 5.3 -4.2 32 6.2 NNW 22 46 12 25 - - 0.0
29/05:00am 11.8 6.2 -3.1 35 5.9 NNW 17 30 9 16 - - 0.0
29/04:30am 11.7 7.0 -1.8 39 5.5 NNW 13 28 7 15 - - 0.0
29/04:00am 12.2 7.5 -1.7 38 5.7 NNW 13 24 7 13 - - 0.0
29/03:30am 11.3 7.4 -1.8 40 5.3 NW 9 15 5 8 - - 0.0
29/03:00am 11.3 7.5 -0.8 43 5.0 NW 9 20 5 11 - - 0.0
29/02:30am 11.6 6.4 0.4 46 4.8 NW 17 33 9 18 - - 0.0
29/02:00am 11.6 7.0 1.8 51 4.3 NNW 15 26 8 14 - - 0.0
29/01:30am 11.9 7.1 2.4 52 4.2 NW 17 33 9 18 - - 0.0
29/01:00am 11.8 7.4 2.5 53 4.1 NW 15 28 8 15 - - 0.0
29/12:30am 12.3 7.5 2.7 52 4.3 NNW 17 33 9 18 - - 0.0
29/12:00am 11.9 7.5 2.9 54 4.1 NNW 15 30 8 16 - - 0.0
 
Date/Time
EST
Temp
°C
App
Temp
°C
Dew
Point
Rel
Hum
%
Delta-T
°C
Wind Press
QNH
hPa
Press
MSL
hPa
Rain
since 9 am
mm
Dir
 
Spd
km/h
Gust
km/h
Spd
kts
Gust
kts
28/11:30pm 12.3 8.3 2.7 52 4.3 NNW 13 28 7 15 - - 0.0
28/11:00pm 12.0 8.3 2.5 52 4.2 NNW 11 20 6 11 - - 0.0
28/10:30pm 11.8 7.8 2.8 54 4.0 NNW 13 33 7 18 - - 0.0
28/10:00pm 11.9 7.9 2.9 54 4.1 NNW 13 26 7 14 - - 0.0
28/09:30pm 12.0 7.9 2.5 52 4.2 NW 13 28 7 15 - - 0.0
28/09:00pm 11.7 7.6 2.2 52 4.2 NNW 13 22 7 12 - - 0.0
28/08:30pm 11.9 7.1 2.4 52 4.2 NNW 17 32 9 17 - - 0.0
28/08:00pm 11.8 6.5 2.8 54 4.0 NW 20 35 11 19 - - 0.0
28/07:30pm 12.3 7.1 2.5 51 4.4 NNW 19 33 10 18 - - 0.0
28/07:00pm 12.2 7.7 2.4 51 4.4 NNW 15 26 8 14 - - 0.0
28/06:30pm 12.8 8.7 2.4 49 4.7 NNW 13 20 7 11 - - 0.0
28/06:00pm 12.9 10.0 2.5 49 4.7 NNW 7 15 4 8 - - 0.0
28/05:30pm 13.5 9.8 2.4 47 5.0 NNW 11 30 6 16 - - 0.0
28/05:00pm 14.7 10.4 3.2 46 5.3 NNW 15 30 8 16 - - 0.0
28/04:30pm 15.9 11.9 3.0 42 6.0 NNW 13 26 7 14 - - 0.0
28/04:00pm 16.4 12.4 3.1 41 6.2 NW 13 28 7 15 - - 0.0
28/03:30pm 16.5 14.3 6.1 50 5.2 NNW 7 22 4 12 - - 0.0
28/03:00pm 16.6 13.5 5.6 48 5.4 NNW 11 24 6 13 - - 0.0
28/02:30pm 17.5 14.6 6.7 49 5.5 NNW 11 22 6 12 - - 0.0
28/02:00pm 16.7 13.2 5.3 47 5.6 NNW 13 28 7 15 - - 0.0
28/01:30pm 17.3 14.3 5.9 47 5.7 NNW 11 24 6 13 - - 0.0
28/01:00pm 17.6 15.3 5.9 46 5.9 NW 7 17 4 9 - - 0.0
28/12:30pm 15.7 13.1 5.9 52 4.8 NNW 9 15 5 8 - - 0.0
28/12:00pm 15.1 11.6 5.6 53 4.6 NNW 13 24 7 13 - - 0.0
28/11:30am 14.5 10.3 5.6 55 4.3 NNW 17 35 9 19 - - 0.0
28/11:00am 13.5 9.1 4.9 56 4.1 NNW 17 32 9 17 - - 0.0
28/10:30am 13.0 8.5 4.4 56 4.0 NNW 17 33 9 18 - - 0.0
28/10:00am 12.2 7.8 4.9 61 3.4 NNW 17 33 9 18 - - 0.0
28/09:30am 11.1 6.2 5.0 66 2.9 NNW 20 30 11 16 - - 0.0
28/09:00am 10.0 4.6 4.6 69 2.5 NNW 22 35 12 19 - - 0.0
28/08:30am 9.5 5.0 4.1 69 2.4 NNW 17 35 9 19 - - 0.0
28/08:00am 8.9 4.3 3.7 70 2.3 NNW 17 30 9 16 - - 0.0
28/07:30am 9.0 3.8 3.6 69 2.4 NNW 20 32 11 17 - - 0.0
28/07:00am 9.1 4.1 3.5 68 2.5 NNW 19 35 10 19 - - 0.0
28/06:30am 9.1 4.4 3.3 67 2.6 N 17 28 9 15 - - 0.0
28/06:00am 8.8 3.7 3.2 68 2.5 N 19 35 10 19 - - 0.0
28/05:30am 7.8 2.6 2.7 70 2.2 NNW 19 28 10 15 - - 0.0
28/05:00am 7.8 3.4 2.5 69 2.3 N 15 26 8 14 - - 0.0
28/04:30am 7.8 3.3 2.3 68 2.4 NNW 15 22 8 12 - - 0.0
28/04:00am 8.9 4.4 2.0 62 3.0 NNW 15 26 8 14 - - 0.0
28/03:30am 9.3 4.8 1.9 60 3.2 N 15 20 8 11 - - 0.0
28/03:00am 9.0 5.2 1.9 61 3.0 N 11 19 6 10 - - 0.0
28/02:30am 9.4 5.6 2.0 60 3.2 N 11 17 6 9 - - 0.0
28/02:00am 9.0 5.2 1.9 61 3.0 N 11 17 6 9 - - 0.0
28/01:30am 8.8 5.0 1.9 62 3.0 N 11 19 6 10 - - 0.0
28/01:00am 8.1 4.3 1.9 65 2.6 N 11 20 6 11 - - 0.0
28/12:30am 8.5 4.8 2.1 64 2.7 N 11 19 6 10 - - 0.0
28/12:00am 8.8 5.0 1.9 62 3.0 N 11 19 6 10 - - 0.0
 
Date/Time
EST
Temp
°C
App
Temp
°C
Dew
Point
Rel
Hum
%
Delta-T
°C
Wind Press
QNH
hPa
Press
MSL
hPa
Rain
since 9 am
mm
Dir
 
Spd
km/h
Gust
km/h
Spd
kts
Gust
kts
27/11:30pm 7.0 2.6 2.9 75 1.8 N 15 22 8 12 - - 0.0
27/11:00pm 8.2 4.2 2.7 68 2.4 N 13 19 7 10 - - 0.0
27/10:30pm 8.9 6.1 2.0 62 3.0 NW 6 7 3 4 - - 0.0
27/10:00pm 8.7 6.0 2.5 65 2.7 NW 6 9 3 5 - - 0.0
27/09:30pm 9.3 6.5 2.9 64 2.8 N 7 9 4 5 - - 0.0
27/09:00pm 9.2 6.4 3.4 67 2.6 N 7 13 4 7 - - 0.0
27/08:30pm 8.7 6.0 3.9 72 2.1 N 7 15 4 8 - - 0.0
27/08:00pm 8.7 5.0 4.7 76 1.8 NNW 13 22 7 12 - - 0.0
27/07:30pm 9.5 6.6 4.7 72 2.2 N 9 15 5 8 - - 0.0
27/07:00pm 10.1 7.6 4.9 70 2.4 N 7 11 4 6 - - 0.0
27/06:30pm 10.2 8.0 5.4 72 2.3 NNW 6 7 3 4 - - 0.0
27/06:00pm 11.0 9.1 5.1 67 2.8 N 4 7 2 4 - - 0.0
27/05:30pm 10.6 8.8 5.2 69 2.5 NNW 4 7 2 4 - - 0.0
27/05:00pm 11.0 10.0 5.7 70 2.5 CALM 0 7 0 4 - - 0.0
27/04:30pm 11.5 10.8 7.0 74 2.2 CALM 0 0 0 0 - - 0.0
27/04:00pm 12.2 11.6 7.3 72 2.4 CALM 0 0 0 0 - - 0.0
27/03:30pm 12.5 11.9 7.6 72 2.5 CALM 0 0 0 0 - - 0.0
27/03:00pm 13.2 12.6 7.4 68 2.9 CALM 0 0 0 0 - - 0.0
27/02:30pm 13.9 12.6 7.7 66 3.1 SSW 4 9 2 5 - - 0.0
27/02:00pm 13.9 12.1 7.0 63 3.4 WSW 6 7 3 4 - - 0.0
27/01:30pm 15.0 13.1 6.6 57 4.2 NW 6 9 3 5 - - 0.0
27/01:00pm 14.7 13.1 6.3 57 4.2 NNW 4 9 2 5 - - 0.0
27/12:30pm 14.2 12.5 5.8 57 4.1 NNW 4 7 2 4 - - 0.0
27/12:00pm 13.5 11.9 6.4 62 3.5 NW 4 9 2 5 - - 0.0
27/11:30am 12.9 11.7 6.5 65 3.1 W 2 4 1 2 - - 0.0
27/11:00am 11.5 10.6 7.6 77 1.9 W 2 4 1 2 - - 0.0
27/10:30am 11.6 9.9 5.7 67 2.8 NW 4 7 2 4 - - 0.0
27/10:00am 11.4 10.3 6.7 73 2.3 N 2 7 1 4 - - 0.0
27/09:30am 11.2 9.6 6.5 73 2.3 NNW 4 6 2 3 - - 0.0
27/09:00am 10.2 8.3 6.5 78 1.8 N 6 7 3 4 - - 0.0
27/08:30am 8.8 6.2 6.3 84 1.2 N 9 11 5 6 - - 0.0
27/08:00am 8.6 6.4 6.2 85 1.1 N 7 9 4 5 - - 0.0
27/07:30am 8.8 7.2 6.3 84 1.2 NNW 4 4 2 2 - - 0.0
27/07:00am 8.6 7.0 6.4 86 1.0 NW 4 4 2 2 - - 0.0
27/06:30am 8.7 7.2 6.8 88 0.9 NNW 4 6 2 3 - - 0.0
27/06:00am 9.1 7.2 6.7 85 1.1 W 6 9 3 5 - - 0.0
27/05:30am 9.2 7.2 7.0 86 1.1 WSW 7 15 4 8 - - 0.0
27/05:00am 9.5 6.7 6.9 84 1.3 WSW 11 20 6 11 - - 0.0
27/04:30am 9.3 6.9 6.9 85 1.2 W 9 17 5 9 - - 0.0
27/04:00am 8.6 6.6 7.2 91 0.7 W 7 17 4 9 - - 0.0
27/03:30am 9.3 7.3 6.9 85 1.2 W 7 13 4 7 - - 0.0
27/03:00am 9.2 6.5 7.2 87 1.0 W 11 17 6 9 - - 0.0
27/02:30am 8.6 6.7 7.5 93 0.5 WNW 7 13 4 7 - - 0.0
27/02:00am 9.2 7.2 7.2 87 1.0 WSW 7 17 4 9 - - 0.0
27/01:30am 9.3 7.3 6.9 85 1.2 W 7 11 4 6 - - 0.0
27/01:00am 8.9 7.2 7.4 90 0.7 WSW 6 11 3 6 - - 0.0
27/12:30am 9.5 7.4 6.6 82 1.4 WSW 7 15 4 8 - - 0.0
27/12:00am 9.7 7.5 6.4 80 1.6 W 7 13 4 7 - - 0.0
 
Date/Time
EST
Temp
°C
App
Temp
°C
Dew
Point
Rel
Hum
%
Delta-T
°C
Wind Press
QNH
hPa
Press
MSL
hPa
Rain
since 9 am
mm
Dir
 
Spd
km/h
Gust
km/h
Spd
kts
Gust
kts
26/11:30pm 9.9 7.3 6.3 78 1.7 W 9 17 5 9 - - 0.0
26/11:00pm 9.6 7.4 6.3 80 1.6 W 7 11 4 6 - - 0.0
26/10:30pm 10.0 7.1 6.3 78 1.8 W 11 22 6 12 - - 0.0
26/10:00pm 9.8 7.2 6.3 79 1.7 W 9 15 5 8 - - 0.0
26/09:30pm 9.1 6.7 6.9 86 1.1 SW 9 19 5 10 - - 0.0
26/09:00pm 8.9 6.4 6.7 86 1.1 WSW 9 15 5 8 - - 0.0
26/08:30pm 9.7 7.5 6.1 78 1.7 WSW 7 13 4 7 - - 0.0
26/08:00pm 9.9 7.6 5.5 74 2.1 W 7 13 4 7 - - 0.0
26/07:30pm 10.4 7.7 5.6 72 2.3 W 9 13 5 7 - - 0.0
26/07:00pm 10.8 8.5 5.6 70 2.5 W 7 13 4 7 - - 0.0
26/06:30pm 11.0 8.2 5.3 68 2.7 W 9 17 5 9 - - 0.0

Other Formats:

Comma delimited format used in spreadsheet applications
http://www.bom.gov.au/fwo/IDV60801/IDV60801.95913.axf

JavaScript Object Notation format (JSON) in row-major order
http://www.bom.gov.au/fwo/IDV60801/IDV60801.95913.json